Jim Falls, WI (54748)

11:24 AM CST on February 08, 2016 (GMT -0600)
Jim Falls 3W | | Change Station
CLOSE
Current Station
Personal Weather Station
Location: Jim Falls, WI
Elevation: 1061 ft
Nearby Weather Stations

Elev 1061 ft 45.08 °N, 91.33 °W | Updated 2 seconds ago

Snow
Snow
16.8 °F
Feels Like 9 °F
N
5.0
Wind Variable Wind from NNW
Gusts 16.0 mph

Today
High -- | Low -- °F
--% Chance of Precip.
Yesterday
High -- | Low -- °F
Precip. -- in
Pressure 29.88 in
Visibility 10.0 miles
Clouds Overcast 4300 ft
Windchill 9 °F
Dew Point 11 °F
Humidity 77%
Rainfall 0.00 in
Snow Depth Not available.
7:16 AM 5:22 PM
New Moon, 0% visible
METAR KEAU 081656Z 33011KT 10SM OVC043 M09/M14 A2983 RMK AO2 SNE36 SLP118 P0000 T10891144
Pressure 29.88 in
Visibility 10.0 miles
Clouds Overcast 4300 ft
Windchill 9 °F
Dew Point 11 °F
Humidity 77%
Rainfall 0.00 in
Snow Depth Not available.
7:16 AM 5:22 PM
New Moon, 0% visible
METAR KEAU 081656Z 33011KT 10SM OVC043 M09/M14 A2983 RMK AO2 SNE36 SLP118 P0000 T10891144

10-Day Weather Forecast

Almanac

Astronomy

Feb. 08, 2016 Rise Set
Actual Time
Civil Twilight
Nautical Twilight
Astronomical Twilight
Moon
Length of Visible Light
Length of Day
Tomorrow will be .
, % of the Moon is Illuminated

Today's Extremes

State Highs State Lows

Community

WunderPhotos

Upload Photos

1,891,471 photos uploaded!

WunderBlog® & News

Nearby

Air Quality

  Air Quality AQ Index Pollutant
Not available.

Snow Depth

Station Depth Elevation

Earthquake Activity

City Distance Mag. Time & Date
Minimum magnitude displayed is 2.5.

Coastal Water Temperatures

Place Temperature

Stations

Nearby Weather Stations

Station Location Temp. Windchill Dew Point Humidity Wind Precip. Elev Updated Type
                   

Watches & Warnings

There are currently no watches in effect.